Time;durP1;ratioP1;P1;durP2;ratioP2;P2;SDS_P1;SDS_P2;PMS_P1;PMS_P2;Temp;Humidity;BMP_temperature;BMP_pressure;BME280_temperature;BME280_humidity;BME280_pressure;Samples;Min_cycle;Max_cycle;Signal;HPM_P1;HPM_P2
2022/06/16 00:01:31;;;;;;;4.30;2.50;;;;;;;22.99;41.34;101755.09;5010292;28;20760;-61
2022/06/16 00:03:56;;;;;;;4.30;2.50;;;;;;;22.98;41.25;101759.47;5013821;28;20395;-61
2022/06/16 00:06:24;;;;;;;5.27;2.30;;;;;;;22.97;41.36;101747.22;5031473;28;20397;-61
2022/06/16 00:08:55;;;;;;;7.27;2.50;;;;;;;22.96;41.20;101742.81;5013502;28;20843;-61
2022/06/16 00:11:28;;;;;;;5.05;2.60;;;;;;;22.98;41.29;101743.72;4988973;28;20417;-61
2022/06/16 00:13:56;;;;;;;4.65;2.70;;;;;;;22.97;41.00;101747.22;5026123;28;20433;-61
2022/06/16 00:16:23;;;;;;;4.95;2.53;;;;;;;22.99;41.50;101750.75;5013422;28;20407;-61
2022/06/16 00:18:49;;;;;;;4.00;2.30;;;;;;;22.99;41.20;101734.97;5013312;28;20405;-61
2022/06/16 00:21:18;;;;;;;5.00;2.50;;;;;;;22.96;41.50;101729.69;5031984;28;20377;-61
2022/06/16 00:23:44;;;;;;;4.33;2.30;;;;;;;22.98;41.59;101738.47;5029370;28;20419;-61
2022/06/16 00:26:18;;;;;;;4.88;2.30;;;;;;;22.99;41.48;101734.97;5014047;28;20401;-61
2022/06/16 00:28:45;;;;;;;3.38;2.35;;;;;;;22.98;41.78;101732.31;5031480;28;20393;-61
2022/06/16 00:31:12;;;;;;;4.93;2.40;;;;;;;23.00;41.56;101742.00;5013927;28;20421;-61
2022/06/16 00:33:38;;;;;;;3.75;2.22;;;;;;;23.00;41.31;101741.09;5015805;28;20916;-62
2022/06/16 00:36:03;;;;;;;4.20;2.40;;;;;;;22.96;41.49;101729.69;5011648;28;20460;-62
2022/06/16 00:38:29;;;;;;;3.10;2.03;;;;;;;22.99;41.71;101739.34;4997624;28;20421;-61
2022/06/16 00:40:54;;;;;;;4.10;2.60;;;;;;;22.99;41.41;101739.34;5013519;28;20408;-62
2022/06/16 00:43:22;;;;;;;3.57;2.00;;;;;;;22.99;41.19;101740.22;5013752;28;20395;-61
2022/06/16 00:45:55;;;;;;;3.77;2.07;;;;;;;22.99;41.49;101734.09;5012405;28;20730;-62
2022/06/16 00:48:36;;;;;;;3.80;2.20;;;;;;;22.98;41.68;101727.97;5013196;28;20443;-61
2022/06/16 00:51:10;;;;;;;4.55;2.40;;;;;;;22.96;41.78;101724.44;5030608;28;20439;-61
2022/06/16 00:53:40;;;;;;;4.00;2.08;;;;;;;22.99;41.50;101719.22;5031917;28;20397;-61
2022/06/16 00:56:09;;;;;;;3.10;2.10;;;;;;;22.91;41.71;101700.69;5014238;28;20405;-61
2022/06/16 00:58:41;;;;;;;3.13;1.92;;;;;;;22.99;41.46;101719.22;4996361;28;20404;-61
2022/06/16 01:01:08;;;;;;;3.38;2.30;;;;;;;22.99;41.46;101724.47;5013809;28;20712;-61
2022/06/16 01:06:21;;;;;;;3.42;2.10;;;;;;;23.00;41.29;101734.13;5009518;28;20392;-62
2022/06/16 01:08:49;;;;;;;3.53;2.20;;;;;;;22.98;41.91;101733.22;4995608;28;20414;-61
2022/06/16 01:15:10;;;;;;;3.60;2.10;;;;;;;23.00;41.22;101725.34;5019713;28;20500;-61
2022/06/16 01:17:53;;;;;;;3.95;2.40;;;;;;;23.01;41.48;101727.09;5014589;28;20888;-61
2022/06/16 01:20:36;;;;;;;3.13;1.90;;;;;;;23.00;41.60;101731.50;5031158;28;20377;-61
2022/06/16 01:23:20;;;;;;;3.03;2.03;;;;;;;23.00;41.53;101730.59;5026943;28;20397;-61
2022/06/16 01:26:23;;;;;;;3.30;1.90;;;;;;;23.00;41.39;101736.75;5029525;28;20920;-61
2022/06/16 01:29:10;;;;;;;4.78;2.08;;;;;;;23.00;41.49;101731.50;5012567;28;21124;-62
2022/06/16 01:31:53;;;;;;;3.42;2.10;;;;;;;23.00;41.97;101730.59;5012597;28;20390;-61
2022/06/16 01:34:42;;;;;;;2.45;1.80;;;;;;;22.99;42.02;101724.47;5011143;28;20740;-62
2022/06/16 01:37:23;;;;;;;3.67;2.00;;;;;;;22.99;41.73;101724.47;5000104;28;20937;-61
2022/06/16 01:40:00;;;;;;;3.23;2.10;;;;;;;22.90;41.71;101703.31;5011960;28;20429;-61
2022/06/16 01:42:45;;;;;;;4.20;1.80;;;;;;;23.00;41.82;101715.72;5012147;28;20506;-61
2022/06/16 01:45:18;;;;;;;3.97;2.20;;;;;;;22.99;41.81;101719.22;5006401;28;20409;-62
2022/06/16 01:47:49;;;;;;;3.08;1.80;;;;;;;23.00;41.37;101715.72;4993981;28;20389;-61
2022/06/16 01:50:40;;;;;;;4.05;2.00;;;;;;;22.99;41.91;101708.72;5010039;28;20397;-61
2022/06/16 01:53:13;;;;;;;3.50;1.80;;;;;;;22.95;41.69;101680.63;5013610;28;20929;-62
2022/06/16 01:55:47;;;;;;;2.70;2.00;;;;;;;23.00;42.14;101689.47;5012877;28;20889;-61
2022/06/16 01:58:21;;;;;;;2.33;1.80;;;;;;;23.00;42.09;101689.47;4991679;28;20902;-62
2022/06/16 02:00:54;;;;;;;2.95;1.80;;;;;;;23.00;41.66;101689.47;5006238;28;20402;-62
2022/06/16 02:03:25;;;;;;;3.70;1.87;;;;;;;23.00;42.05;101692.09;5012769;28;20782;-62
2022/06/16 02:05:57;;;;;;;3.13;1.73;;;;;;;23.00;41.49;101686.84;5011452;28;20480;-62
2022/06/16 02:08:26;;;;;;;2.67;1.70;;;;;;;23.00;41.65;101689.47;5029090;28;20447;-62
2022/06/16 02:10:57;;;;;;;4.05;2.25;;;;;;;22.99;41.62;101687.69;5002038;28;20394;-61
2022/06/16 02:13:35;;;;;;;2.53;1.83;;;;;;;23.00;41.64;101689.47;5016248;28;20393;-61
2022/06/16 02:16:26;;;;;;;2.80;1.85;;;;;;;23.00;41.88;101694.72;5029662;28;20416;-62
2022/06/16 02:18:56;;;;;;;3.38;1.60;;;;;;;23.02;42.01;101703.50;4998340;28;20388;-62
2022/06/16 02:21:36;;;;;;;3.35;1.67;;;;;;;23.02;41.98;101698.25;5015279;28;20530;-62
2022/06/16 02:24:05;;;;;;;2.88;1.95;;;;;;;23.00;42.36;101686.84;5016060;28;20408;-62
2022/06/16 02:26:37;;;;;;;2.73;1.70;;;;;;;23.01;41.77;101691.22;5016485;28;20408;-62
2022/06/16 02:29:23;;;;;;;2.97;1.67;;;;;;;22.99;42.10;101697.31;4998956;28;20397;-62
2022/06/16 02:32:13;;;;;;;2.38;1.60;;;;;;;23.01;41.56;101701.72;5015434;28;20430;-61
2022/06/16 02:34:57;;;;;;;3.35;1.83;;;;;;;23.00;41.70;101701.69;5029047;28;20452;-61
2022/06/16 02:37:40;;;;;;;2.53;1.67;;;;;;;23.00;42.02;101702.59;5032332;28;20394;-61
2022/06/16 02:40:57;;;;;;;3.15;1.80;;;;;;;23.00;41.59;101702.59;5015691;28;20397;-62
2022/06/16 02:43:30;;;;;;;2.90;1.80;;;;;;;23.00;41.55;101705.22;4991663;28;20397;-61
2022/06/16 02:46:09;;;;;;;2.97;1.70;;;;;;;23.00;41.92;101697.34;5014910;28;20868;-62
2022/06/16 02:49:11;;;;;;;3.25;1.60;;;;;;;22.99;41.77;101703.47;5016105;28;20769;-62
2022/06/16 02:52:01;;;;;;;3.10;1.73;;;;;;;22.98;41.85;101701.69;4994848;28;20751;-61
2022/06/16 02:54:30;;;;;;;3.17;1.60;;;;;;;22.93;41.90;101692.88;5003948;28;20378;-62
2022/06/16 02:57:12;;;;;;;2.33;1.57;;;;;;;23.00;41.80;101709.56;5009641;28;20401;-62
2022/06/16 02:59:48;;;;;;;2.70;1.60;;;;;;;22.97;41.88;101699.94;4995036;28;20404;-62
2022/06/16 03:02:22;;;;;;;2.20;1.60;;;;;;;22.96;41.93;101703.41;5028491;28;20401;-62
2022/06/16 03:04:54;;;;;;;3.20;1.60;;;;;;;22.98;41.60;101696.44;5015327;28;20447;-62
2022/06/16 03:07:27;;;;;;;1.95;1.50;;;;;;;22.99;41.80;101698.19;4996637;28;20492;-61
2022/06/16 03:09:58;;;;;;;2.72;1.60;;;;;;;22.98;41.84;101708.66;5015891;28;20393;-62
2022/06/16 03:12:23;;;;;;;2.85;1.55;;;;;;;23.00;41.56;101718.34;4998643;28;20385;-61
2022/06/16 03:14:51;;;;;;;2.60;1.73;;;;;;;23.00;41.47;101715.72;5014654;28;20832;-61
2022/06/16 03:17:17;;;;;;;2.77;1.60;;;;;;;23.00;41.73;101720.97;4998194;28;20382;-61
2022/06/16 03:19:45;;;;;;;2.20;1.70;;;;;;;23.01;41.84;101727.09;5008298;28;20418;-61
2022/06/16 03:22:14;;;;;;;3.05;1.65;;;;;;;23.01;41.86;101730.63;4996412;28;20988;-61
2022/06/16 03:24:42;;;;;;;1.70;1.40;;;;;;;23.01;42.16;101733.25;5015429;28;20381;-61
2022/06/16 03:27:07;;;;;;;2.92;1.70;;;;;;;22.99;42.10;101729.72;5014547;28;20738;-61
2022/06/16 03:29:35;;;;;;;3.08;1.60;;;;;;;22.99;41.75;101729.72;4995269;28;20407;-61
2022/06/16 03:32:08;;;;;;;2.72;1.50;;;;;;;23.01;42.07;101733.25;5033637;28;20451;-62
2022/06/16 03:34:33;;;;;;;1.95;1.60;;;;;;;23.00;41.66;101731.50;5007440;28;20399;-61
2022/06/16 03:36:59;;;;;;;2.53;1.60;;;;;;;23.02;41.60;101732.41;4995765;28;20405;-62
2022/06/16 03:39:24;;;;;;;2.83;1.52;;;;;;;22.99;41.77;101728.81;5015144;28;20885;-61
2022/06/16 03:41:53;;;;;;;2.37;1.60;;;;;;;23.02;41.86;101735.03;4998374;28;20874;-61
2022/06/16 03:44:18;;;;;;;2.50;1.60;;;;;;;23.02;41.86;101740.28;4995816;28;20403;-62
2022/06/16 03:46:44;;;;;;;2.70;1.63;;;;;;;23.02;41.78;101736.75;5006848;28;20486;-61
2022/06/16 03:49:09;;;;;;;2.13;1.63;;;;;;;23.01;42.02;101738.50;4997834;28;20401;-61
2022/06/16 03:51:40;;;;;;;2.50;1.70;;;;;;;23.01;42.20;101738.50;5014694;28;20428;-62
2022/06/16 03:54:08;;;;;;;1.90;1.40;;;;;;;23.02;41.75;101742.91;5013260;28;20401;-62
2022/06/16 03:56:37;;;;;;;2.10;1.60;;;;;;;23.03;42.31;101744.69;5032071;28;20673;-62
2022/06/16 03:59:05;;;;;;;2.35;1.42;;;;;;;23.02;41.85;101742.91;4996501;28;20397;-61
2022/06/16 04:01:33;;;;;;;1.70;1.30;;;;;;;22.96;42.09;101745.44;5012612;28;20903;-62
2022/06/16 04:04:01;;;;;;;2.27;1.50;;;;;;;23.03;42.40;101763.06;5014246;28;20402;-61
2022/06/16 04:06:29;;;;;;;2.42;1.60;;;;;;;23.02;42.38;101763.94;5030139;28;20432;-62
2022/06/16 04:08:58;;;;;;;2.37;1.50;;;;;;;23.02;41.80;101763.94;5011424;28;20397;-62
2022/06/16 04:11:27;;;;;;;1.85;1.50;;;;;;;23.01;42.32;101764.78;5013492;28;20981;-62
2022/06/16 04:14:00;;;;;;;1.65;1.40;;;;;;;23.03;41.87;101763.06;5025294;28;20393;-62
2022/06/16 04:16:31;;;;;;;2.20;1.60;;;;;;;23.02;42.13;101766.56;5010207;28;20397;-62
2022/06/16 04:19:02;;;;;;;2.35;1.30;;;;;;;23.02;42.27;101757.78;5012300;28;20436;-62
2022/06/16 04:21:31;;;;;;;3.53;2.05;;;;;;;23.02;42.35;101761.31;5013952;28;20408;-62
2022/06/16 04:23:56;;;;;;;2.27;1.50;;;;;;;23.01;42.04;101764.78;4993474;28;20487;-62
2022/06/16 04:26:24;;;;;;;2.17;1.57;;;;;;;23.02;41.84;101773.53;4997441;28;20491;-62
2022/06/16 04:28:50;;;;;;;2.65;1.50;;;;;;;23.02;42.13;101770.91;5010915;28;20411;-61
2022/06/16 04:31:16;;;;;;;2.13;1.50;;;;;;;23.00;42.13;101773.53;5013746;28;20407;-61
2022/06/16 04:33:46;;;;;;;2.03;1.43;;;;;;;23.03;42.25;101784.09;5010887;28;20862;-61
2022/06/16 04:36:13;;;;;;;1.88;1.60;;;;;;;23.02;42.35;101782.31;5030954;28;20401;-62
2022/06/16 04:38:44;;;;;;;2.85;1.67;;;;;;;23.02;42.46;101782.31;5009144;28;20407;-62
2022/06/16 04:41:10;;;;;;;2.03;1.55;;;;;;;23.02;42.35;101777.06;5014263;28;20397;-62
2022/06/16 04:43:41;;;;;;;2.42;1.50;;;;;;;23.03;42.11;101789.34;5013740;28;20830;-62
2022/06/16 04:46:12;;;;;;;1.88;1.40;;;;;;;22.94;42.24;101768.19;5011659;28;20487;-61
2022/06/16 04:48:38;;;;;;;2.10;1.50;;;;;;;23.02;42.19;101792.81;4989526;28;20771;-61
2022/06/16 04:51:03;;;;;;;2.30;1.50;;;;;;;23.00;42.16;101776.16;5028529;28;20412;-62
2022/06/16 04:53:30;;;;;;;1.77;1.60;;;;;;;23.03;42.20;101789.34;5026283;28;20561;-62
2022/06/16 04:55:58;;;;;;;2.95;1.52;;;;;;;23.01;41.80;101796.31;5011245;28;20487;-62
2022/06/16 04:58:25;;;;;;;2.35;1.67;;;;;;;23.00;42.17;101789.28;5030944;28;20389;-61
2022/06/16 05:00:53;;;;;;;3.92;1.90;;;;;;;23.03;41.99;101794.59;4995223;28;20401;-62
2022/06/16 05:03:21;;;;;;;2.35;1.40;;;;;;;23.03;42.33;101805.09;4996369;28;20393;-61
2022/06/16 05:05:55;;;;;;;2.33;1.50;;;;;;;23.03;42.00;101798.94;5011423;28;20928;-61
2022/06/16 05:08:27;;;;;;;3.23;1.47;;;;;;;23.03;42.44;101805.09;5008413;28;20459;-62
2022/06/16 05:10:52;;;;;;;2.17;1.55;;;;;;;23.04;42.31;101806.88;5000420;28;20402;-61
2022/06/16 05:13:24;;;;;;;2.13;1.50;;;;;;;23.04;42.03;101811.22;5012924;28;20447;-62
2022/06/16 05:15:55;;;;;;;1.70;1.35;;;;;;;23.01;42.27;101812.06;5009219;28;20473;-62
2022/06/16 05:18:28;;;;;;;2.17;1.50;;;;;;;23.03;42.03;101815.63;4996699;28;20451;-62
2022/06/16 05:21:05;;;;;;;1.55;1.40;;;;;;;23.04;42.39;101822.63;5024344;28;20436;-61
2022/06/16 05:23:33;;;;;;;1.95;1.40;;;;;;;23.02;42.00;101819.09;5024866;28;20389;-61
2022/06/16 05:26:02;;;;;;;2.10;1.50;;;;;;;23.04;41.81;101829.63;5008733;28;20405;-62
2022/06/16 05:28:28;;;;;;;2.22;1.30;;;;;;;23.03;41.89;101828.75;5012149;28;20389;-62
2022/06/16 05:30:56;;;;;;;1.90;1.50;;;;;;;23.04;42.05;101837.50;4996224;28;20404;-62
2022/06/16 05:33:24;;;;;;;1.92;1.48;;;;;;;23.00;41.91;101836.59;5028544;28;20443;-62
2022/06/16 05:36:02;;;;;;;1.90;1.30;;;;;;;23.05;41.96;101845.41;4995665;28;20901;-61
2022/06/16 05:38:28;;;;;;;1.58;1.25;;;;;;;23.05;41.81;101844.53;4996641;28;20482;-61
2022/06/16 05:40:58;;;;;;;1.70;1.40;;;;;;;23.07;41.92;101844.56;4991729;28;20895;-62
2022/06/16 05:43:28;;;;;;;2.10;1.40;;;;;;;23.06;42.05;101841.03;4991531;28;20397;-61
2022/06/16 05:45:57;;;;;;;2.60;1.65;;;;;;;23.03;42.28;101841.88;5032974;28;20409;-62
2022/06/16 05:48:22;;;;;;;2.72;1.58;;;;;;;22.94;41.62;101820.72;5017333;28;20392;-61
2022/06/16 05:50:51;;;;;;;1.60;1.30;;;;;;;23.03;42.36;101836.63;5004461;28;20480;-62
2022/06/16 05:53:18;;;;;;;3.20;1.67;;;;;;;23.09;41.64;101830.56;5027597;28;20869;-61
2022/06/16 05:55:44;;;;;;;6.10;1.77;;;;;;;23.16;41.75;101836.81;5018782;28;20909;-62
2022/06/16 05:58:10;;;;;;;3.92;1.75;;;;;;;23.19;41.69;101836.88;5020192;28;20423;-62
2022/06/16 06:00:49;;;;;;;4.93;1.90;;;;;;;23.22;41.20;101830.75;5018424;28;20397;-62
2022/06/16 06:03:20;;;;;;;2.78;1.60;;;;;;;23.24;41.56;101834.34;5014598;28;20401;-62
2022/06/16 06:05:49;;;;;;;3.95;1.60;;;;;;;23.25;41.37;101838.72;4998257;28;20403;-62
2022/06/16 06:16:35;;;;;;;3.28;1.60;;;;;;;23.13;42.02;101848.16;5022102;28;20763;-61
2022/06/16 06:19:23;;;;;;;2.50;1.60;;;;;;;23.10;41.88;101847.25;5018332;28;20396;-61
2022/06/16 06:22:02;;;;;;;2.92;1.70;;;;;;;23.09;42.19;101846.34;5015682;28;20873;-68
2022/06/16 06:24:37;;;;;;;4.05;1.77;;;;;;;23.14;41.88;101859.56;5013751;28;20412;-61
2022/06/16 06:27:14;;;;;;;5.18;2.00;;;;;;;23.17;41.63;101854.34;5011757;28;20898;-61
2022/06/16 06:29:43;;;;;;;4.47;1.90;;;;;;;23.22;41.33;101857.94;5009348;28;20425;-66
2022/06/16 06:32:10;;;;;;;5.03;1.90;;;;;;;23.25;41.85;101858.03;5010670;28;20436;-62
2022/06/16 06:37:25;;;;;;;4.50;1.60;;;;;;;23.30;42.15;101865.97;5049256;22;20425;-60
2022/06/16 06:39:53;;;;;;;5.82;2.40;;;;;;;23.30;41.60;101866.88;4996036;28;20826;-62
2022/06/16 06:42:23;;;;;;;5.67;2.50;;;;;;;23.32;41.40;101859.88;4996698;28;20420;-59
2022/06/16 06:44:56;;;;;;;40.67;10.15;;;;;;;23.34;42.12;101859.94;4996759;28;20397;-79
2022/06/16 06:47:28;;;;;;;52.20;13.00;;;;;;;23.35;42.18;101869.59;5006447;28;20413;-65
2022/06/16 06:49:55;;;;;;;46.50;11.80;;;;;;;23.34;43.40;101873.94;4997431;28;20405;-63
2022/06/16 06:52:22;;;;;;;31.27;8.13;;;;;;;23.37;42.05;101872.22;5011446;28;20406;-62
2022/06/16 06:54:52;;;;;;;34.50;8.35;;;;;;;23.29;43.98;101870.34;5012291;28;20751;-62
2022/06/16 06:57:24;;;;;;;30.63;7.57;;;;;;;23.37;42.94;101872.22;5007163;28;20407;-58
2022/06/16 06:59:54;;;;;;;26.27;7.05;;;;;;;23.38;43.40;101879.25;4999204;28;20493;-60
2022/06/16 07:02:20;;;;;;;29.90;7.03;;;;;;;23.40;43.38;101880.16;4999594;28;20389;-65
2022/06/16 07:04:52;;;;;;;28.92;7.35;;;;;;;23.37;43.02;101877.47;5001403;28;20432;-65
2022/06/16 07:07:32;;;;;;;27.90;7.35;;;;;;;23.33;42.36;101880.06;4996173;28;20397;-57
2022/06/16 07:10:04;;;;;;;25.98;7.35;;;;;;;23.33;43.23;101887.94;4995475;28;20815;-51
2022/06/16 07:12:44;;;;;;;27.98;7.22;;;;;;;23.33;43.54;101887.94;4999243;28;20474;-50
2022/06/16 07:15:18;;;;;;;23.30;6.88;;;;;;;23.36;42.83;101894.09;4988879;28;20397;-53
2022/06/16 07:17:56;;;;;;;19.23;6.38;;;;;;;23.39;42.97;101896.78;5002820;28;20417;-58
2022/06/16 07:20:30;;;;;;;21.97;6.03;;;;;;;23.36;42.84;101907.25;4990701;28;20483;-52
2022/06/16 07:23:04;;;;;;;20.75;6.53;;;;;;;23.30;43.84;101903.66;5001037;28;20532;-59
2022/06/16 07:25:31;;;;;;;22.55;7.13;;;;;;;23.31;43.11;101897.53;4999208;28;20925;-58
2022/06/16 07:27:58;;;;;;;24.73;6.72;;;;;;;23.30;43.78;101893.16;5022844;28;20439;-58
2022/06/16 07:30:27;;;;;;;22.40;5.97;;;;;;;23.29;43.41;101891.38;4998530;28;20377;-58
2022/06/16 07:33:17;;;;;;;17.83;5.90;;;;;;;23.31;42.67;101900.19;4994347;28;20519;-59
2022/06/16 07:35:47;;;;;;;16.80;4.95;;;;;;;23.30;43.44;101903.66;4998941;28;20407;-56
2022/06/16 07:38:20;;;;;;;16.42;4.95;;;;;;;23.29;43.39;101901.00;5009955;28;20513;-58
2022/06/16 07:40:47;;;;;;;16.02;4.90;;;;;;;23.30;43.05;101903.66;5012857;28;20393;-58
2022/06/16 07:43:18;;;;;;;16.48;5.00;;;;;;;23.32;43.00;101907.19;5012212;28;20406;-56
2022/06/16 07:45:49;;;;;;;14.98;4.63;;;;;;;23.32;43.10;101909.81;5015375;28;20393;-58
2022/06/16 07:48:17;;;;;;;11.25;4.63;;;;;;;23.33;43.17;101913.34;4994055;28;20493;-57
2022/06/16 07:50:48;;;;;;;15.63;4.80;;;;;;;23.34;42.37;101910.75;4995714;28;20458;-57
2022/06/16 07:53:18;;;;;;;19.08;4.82;;;;;;;23.38;42.99;101916.03;5004305;28;20396;-58
2022/06/16 07:55:48;;;;;;;11.30;4.30;;;;;;;23.34;42.92;101918.63;5015132;28;20390;-57
2022/06/16 07:58:18;;;;;;;14.63;4.60;;;;;;;23.31;42.98;101910.69;5014960;28;20382;-58
2022/06/16 08:00:48;;;;;;;11.02;3.75;;;;;;;23.29;42.59;101927.28;4998731;28;20404;-57
2022/06/16 08:03:22;;;;;;;11.18;4.43;;;;;;;23.27;42.65;101924.63;4993698;28;20491;-57
2022/06/16 08:05:51;;;;;;;11.10;4.55;;;;;;;23.20;42.60;101918.34;4995141;28;20478;-59
2022/06/16 08:08:22;;;;;;;13.97;5.27;;;;;;;23.24;43.26;101929.84;4987605;28;20478;-58
2022/06/16 08:10:48;;;;;;;11.23;3.65;;;;;;;23.25;42.76;101931.63;4996349;28;20385;-58
2022/06/16 08:13:18;;;;;;;10.05;3.80;;;;;;;23.26;43.21;101925.50;5011650;28;20393;-56
2022/06/16 08:15:49;;;;;;;8.60;3.63;;;;;;;23.27;42.75;101929.91;5015140;28;20397;-59
2022/06/16 08:18:21;;;;;;;9.10;3.47;;;;;;;23.30;42.37;101935.22;4998908;28;20471;-58
2022/06/16 08:20:50;;;;;;;11.27;3.87;;;;;;;23.32;42.28;101933.47;4998591;28;20408;-58
2022/06/16 08:23:17;;;;;;;9.73;3.47;;;;;;;23.32;42.28;101928.22;4989783;28;20389;-57
2022/06/16 08:25:48;;;;;;;9.48;4.13;;;;;;;23.33;42.54;101919.47;4998455;28;20416;-58
2022/06/16 08:28:19;;;;;;;9.40;3.42;;;;;;;23.34;41.88;101918.63;4998313;28;20483;-56
2022/06/16 08:30:57;;;;;;;8.18;3.08;;;;;;;23.34;42.10;101918.63;5014733;28;20393;-56
2022/06/16 08:33:27;;;;;;;7.68;3.05;;;;;;;23.29;42.15;101912.41;4991960;28;20398;-58
2022/06/16 08:35:57;;;;;;;9.25;3.80;;;;;;;23.26;42.03;101917.63;4978435;28;20415;-59
2022/06/16 08:38:27;;;;;;;8.48;3.10;;;;;;;23.25;42.39;101915.84;4993046;28;20412;-57
2022/06/16 08:41:13;;;;;;;8.25;3.17;;;;;;;23.21;42.92;101914.00;4998060;28;20381;-59
2022/06/16 08:44:09;;;;;;;7.68;3.10;;;;;;;23.24;42.46;101923.69;4990856;28;20408;-58
2022/06/16 08:46:51;;;;;;;5.80;2.67;;;;;;;23.25;42.70;101909.69;5015129;28;20436;-58
2022/06/16 08:49:21;;;;;;;7.68;3.10;;;;;;;23.27;42.84;101919.38;4998975;28;20393;-57
2022/06/16 08:52:20;;;;;;;6.77;2.93;;;;;;;23.30;41.78;101924.69;4997251;28;20847;-58
2022/06/16 08:55:07;;;;;;;6.53;2.70;;;;;;;23.34;41.37;101918.63;4976718;28;20389;-59
2022/06/16 08:58:07;;;;;;;8.50;2.60;;;;;;;23.36;41.76;101933.53;5010765;28;20392;-59
2022/06/16 09:00:39;;;;;;;6.00;2.90;;;;;;;23.34;41.38;101923.00;5014256;28;20397;-59
2022/06/16 09:03:46;;;;;;;6.15;2.30;;;;;;;23.37;40.75;101914.28;4998123;28;20374;-57
2022/06/16 09:06:26;;;;;;;6.32;2.58;;;;;;;23.34;41.62;101918.63;4998513;28;20464;-59
2022/06/16 09:09:16;;;;;;;6.95;2.53;;;;;;;23.33;41.13;101908.97;5011719;28;20905;-58
2022/06/16 09:12:17;;;;;;;5.67;2.40;;;;;;;23.33;41.50;101908.97;4997740;28;20475;-59
2022/06/16 09:15:11;;;;;;;5.53;2.33;;;;;;;23.29;41.66;101907.16;4980023;28;20379;-57
2022/06/16 09:18:11;;;;;;;4.68;2.33;;;;;;;23.29;41.71;101917.66;4988201;28;20413;-58
2022/06/16 09:20:50;;;;;;;5.47;2.20;;;;;;;23.28;41.40;101915.91;5000150;28;20429;-59
2022/06/16 09:23:59;;;;;;;5.75;1.90;;;;;;;23.29;40.96;101917.66;4996921;28;20393;-58
2022/06/16 09:26:55;;;;;;;5.60;2.25;;;;;;;23.30;41.16;101924.69;4971770;28;21013;-58
2022/06/16 09:29:59;;;;;;;4.65;2.50;;;;;;;23.33;40.52;101930.00;5012011;28;20759;-58
2022/06/16 09:32:27;;;;;;;3.42;2.22;;;;;;;23.38;40.75;101931.81;5020929;28;20397;-59
2022/06/16 09:35:01;;;;;;;5.22;2.20;;;;;;;23.40;40.07;101922.22;5014126;28;20580;-57
2022/06/16 09:37:57;;;;;;;5.47;2.30;;;;;;;23.43;40.11;101927.53;5013877;28;20401;-58
2022/06/16 09:40:38;;;;;;;4.28;1.90;;;;;;;23.41;40.67;101931.88;4996589;28;20428;-59
2022/06/16 09:43:14;;;;;;;5.35;2.30;;;;;;;23.39;40.55;101929.22;4997341;28;20534;-59
2022/06/16 09:45:57;;;;;;;5.28;2.00;;;;;;;23.31;41.45;101925.56;4997762;28;20393;-59
2022/06/16 09:48:31;;;;;;;5.85;1.98;;;;;;;23.31;41.01;101931.72;4991313;28;20406;-59
2022/06/16 09:51:11;;;;;;;3.60;1.90;;;;;;;23.35;40.78;101937.94;5030516;28;20377;-58
2022/06/16 09:54:01;;;;;;;5.40;2.45;;;;;;;23.34;40.67;101923.88;5013106;28;20397;-59
2022/06/16 09:56:45;;;;;;;3.70;1.90;;;;;;;23.32;40.54;101912.47;4982581;28;20405;-59
2022/06/16 09:59:37;;;;;;;5.10;1.85;;;;;;;23.37;40.67;101914.28;4997128;28;20385;-59
2022/06/16 10:02:20;;;;;;;4.30;1.70;;;;;;;23.37;40.21;101914.28;4993997;28;20393;-59
2022/06/16 10:05:02;;;;;;;4.07;2.00;;;;;;;23.37;40.45;101920.44;4996548;28;20393;-58
2022/06/16 10:07:41;;;;;;;3.72;1.73;;;;;;;23.39;39.79;101915.19;4995114;28;20997;-57
2022/06/16 10:10:17;;;;;;;3.70;1.90;;;;;;;23.41;40.59;101917.00;4994137;28;20426;-58
2022/06/16 10:13:15;;;;;;;3.93;1.93;;;;;;;23.41;39.65;101922.25;4993738;28;20390;-59
2022/06/16 10:16:17;;;;;;;3.72;2.00;;;;;;;23.43;40.17;101932.78;4993389;28;20876;-59
2022/06/16 10:18:48;;;;;;;3.25;1.85;;;;;;;23.40;39.75;101928.38;4991702;28;20415;-59
2022/06/16 10:21:40;;;;;;;3.80;1.90;;;;;;;23.39;39.77;101944.09;4977656;28;20387;-57
2022/06/16 10:24:10;;;;;;;4.13;1.75;;;;;;;23.42;39.71;101936.25;5009874;28;20390;-58
2022/06/16 10:26:40;;;;;;;3.42;1.60;;;;;;;23.41;39.95;101935.41;5013209;28;20385;-58
2022/06/16 10:29:18;;;;;;;3.42;1.65;;;;;;;23.40;40.02;101935.34;4996861;28;20862;-56
2022/06/16 10:31:48;;;;;;;3.08;1.60;;;;;;;23.37;40.03;101941.47;4997051;28;20472;-58
2022/06/16 10:34:33;;;;;;;3.65;1.70;;;;;;;23.35;40.01;101943.19;4994793;28;20407;-58
2022/06/16 10:37:18;;;;;;;2.53;1.70;;;;;;;23.37;40.39;101951.06;5012229;28;20409;-58
2022/06/16 10:40:07;;;;;;;4.82;1.73;;;;;;;23.38;40.16;101947.59;4997511;28;20385;-58
2022/06/16 10:42:43;;;;;;;3.33;1.60;;;;;;;23.38;39.46;101963.38;4992403;28;20462;-58
2022/06/16 10:45:34;;;;;;;3.75;1.70;;;;;;;23.38;40.16;101971.25;4994823;28;20886;-57
2022/06/16 10:48:00;;;;;;;3.45;1.88;;;;;;;23.39;39.89;101980.91;5016964;28;20373;-58
2022/06/16 10:51:04;;;;;;;4.35;1.60;;;;;;;23.39;39.23;101976.56;5034111;28;20826;-57
2022/06/16 10:53:59;;;;;;;1.77;1.40;;;;;;;23.39;39.77;101973.91;5015848;28;20760;-59
2022/06/16 10:56:32;;;;;;;3.55;1.77;;;;;;;23.37;40.09;101973.00;4996461;28;20534;-56
2022/06/16 10:59:05;;;;;;;2.88;1.65;;;;;;;23.38;40.50;101979.13;4989990;28;20405;-56
2022/06/16 11:01:39;;;;;;;4.32;1.70;;;;;;;23.39;40.00;101970.38;4991013;28;20405;-58
2022/06/16 11:04:17;;;;;;;3.80;1.80;;;;;;;23.36;39.79;101965.09;4996524;28;20391;-58
2022/06/16 11:06:52;;;;;;;3.22;1.65;;;;;;;23.23;40.26;101943.81;4980266;28;20473;-56
2022/06/16 11:09:31;;;;;;;3.03;1.70;;;;;;;23.31;40.45;101963.25;4986232;28;20395;-58
2022/06/16 11:12:06;;;;;;;2.97;1.55;;;;;;;23.37;39.45;101966.84;5013737;28;20398;-57
2022/06/16 11:14:36;;;;;;;2.80;1.60;;;;;;;23.37;40.19;101966.84;4996298;28;20398;-57
2022/06/16 11:17:07;;;;;;;2.90;1.48;;;;;;;23.41;40.02;101960.78;4980765;28;20430;-58
2022/06/16 11:19:44;;;;;;;3.15;1.52;;;;;;;23.43;39.52;101961.69;4995551;28;20444;-58
2022/06/16 11:22:30;;;;;;;2.85;1.50;;;;;;;23.43;39.44;101965.22;5015148;28;20450;-59
2022/06/16 11:25:15;;;;;;;3.05;1.50;;;;;;;23.29;39.46;101943.03;5025216;28;20393;-58
2022/06/16 11:27:46;;;;;;;2.65;1.50;;;;;;;23.37;38.98;101966.84;5027673;28;20478;-58
2022/06/16 11:30:30;;;;;;;3.88;1.58;;;;;;;23.42;39.41;101980.97;5033686;28;20451;-59
2022/06/16 11:32:55;;;;;;;2.85;1.50;;;;;;;23.43;39.61;101974.84;5033651;28;20412;-57
2022/06/16 11:35:27;;;;;;;3.33;1.67;;;;;;;23.39;39.62;101968.66;5014358;28;20440;-58
2022/06/16 11:38:06;;;;;;;3.65;2.00;;;;;;;23.39;39.58;101970.38;5015474;28;20472;-58
2022/06/16 11:40:51;;;;;;;2.25;1.50;;;;;;;23.41;39.75;101971.31;5015719;28;20377;-58
2022/06/16 11:43:29;;;;;;;2.50;1.50;;;;;;;23.41;39.37;101964.31;5013537;28;20432;-58
2022/06/16 11:46:04;;;;;;;4.22;1.58;;;;;;;23.40;39.93;101957.28;4998452;28;20405;-57
2022/06/16 11:48:58;;;;;;;3.28;1.50;;;;;;;23.42;39.44;101966.09;4998911;28;20451;-58
2022/06/16 11:51:36;;;;;;;3.20;1.60;;;;;;;23.41;39.76;101969.56;5008980;28;20874;-58
2022/06/16 11:54:25;;;;;;;3.63;1.48;;;;;;;23.41;39.28;101969.56;5007028;28;20397;-58
2022/06/16 11:57:01;;;;;;;1.83;1.33;;;;;;;23.42;39.46;101975.69;4998922;28;20943;-57
2022/06/16 11:59:39;;;;;;;3.75;1.63;;;;;;;23.41;39.43;101963.41;4998820;28;20408;-58
2022/06/16 12:02:20;;;;;;;2.63;1.50;;;;;;;23.43;39.25;101966.94;5011676;28;20403;-57
2022/06/16 12:04:57;;;;;;;3.05;1.55;;;;;;;23.41;39.35;101963.41;5013414;28;20418;-58
2022/06/16 12:07:52;;;;;;;2.22;1.40;;;;;;;23.44;39.13;101968.72;5013068;28;20947;-56
2022/06/16 12:10:39;;;;;;;2.50;1.50;;;;;;;23.43;39.75;101961.69;4998680;28;20743;-58
2022/06/16 12:13:49;;;;;;;2.38;1.40;;;;;;;23.43;39.37;101966.94;4996417;28;20397;-57
2022/06/16 12:16:44;;;;;;;3.75;2.30;;;;;;;23.44;39.24;101967.00;4998596;28;20397;-56
2022/06/16 12:19:26;;;;;;;2.85;1.40;;;;;;;23.45;39.93;101975.75;4998627;28;20392;-58